Terminal Aerodrome Forecast
Issued by NWS

Home | Current Version | Previous Version | Text Only | Print | Product List | Glossary On
Versions: 1 2 3 4 5 6 7 8 9 10 11 12 13 14 15 16 17 18 19 20 21 22 23 24 25 26 27 28
000
FTUS41 KBOX 231128
TAFBAF
TAF
KBAF 231128Z 2312/2412 VRB03KT P6SM BKN050
     FM231400 VRB03KT P6SM SCT050
     FM232300 VRB03KT P6SM BKN080
     FM240700 VRB03KT 5SM -RA BR BKN090
     FM240800 11004KT 3SM -RA BR OVC015 WS020/17030KT=

USA.gov is the U.S. government's official web portal to all federal, state and local government web resources and services.